KABI

Abilene Regional Airport

Abilene, Texas, USA
METAR KABI 251452Z 20013KT 10SM CLR 23/20 A2996 RMK AO2 SLP124 T02330200 51008
Observed Flight Rules
Sep-25 @ 14:52 UTC (14 minutes ago) Visual Flight Rules
Wind Visibility Clouds
200° at 13 knots 10 miles
  • Clear skies
Temperatures Readings
Current 23°C / 73°F
Dewpoint 20°C / 68°F
Humidity 83%
Altimeter 29.96" Hg
Pressure 1012.4 hPa
Elevation 548
METAR KABI 251452Z 20013KT 10SM CLR 23/20 A2996 RMK AO2 SLP124 T02330200 51008
Observed Flight Rules
Sep-25 @ 14:52 UTC
(14 minutes ago)
VFR
Wind Visibility
200° at 13 knots 10 miles
Clouds
  • Clear skies
Temperature Dewpoint
23°C / 73°F 20°C / 68°F
Humidity Altimeter Pressure
83% 29.96" Hg 1012.4 hPa